Fritz — WDF3166 — position and weather

sailwx.info

Track history (hours):
 
Tides and Currents Weather Stations Pressure Air Temp Water Temp Dewpoint Dewpoint Depression Visibility Wind Speed Wind Dir Waves Ship Positions

Fritz

Owner: Enterprise Marine Services, LLC, San Antonio, TX. More information available from US FCC via Universal Licensing System and Coast Guard Vessel Documentation Center.

Last reported at 2017-Sep-18 03:31 UTC. Time now 2017-Sep-23 04:11 UTC.
Position N 30°04' W 093°41'.

Length 31 m; draft 3 m.

Type: Towing. MMSI: 367428150.

Date/timePositionNaut miles runAvg speedWind from/ knotsBaromVisibWave heightAir tempDewpointWater temp
2017-Sep-18 03:31N 30°04' W 093°41'0 7.6
2017-Sep-18 03:29N 30°04' W 093°41'3 7.2
2017-Sep-18 03:00N 30°04' W 093°37'3 6.0
2017-Sep-18 02:30N 30°04' W 093°33'3 5.7
2017-Sep-18 02:00N 30°04' W 093°30'3 5.7
2017-Sep-18 01:30N 30°04' W 093°27'3 5.8
2017-Sep-18 01:00N 30°04' W 093°23'2 4.2
2017-Sep-18 00:30N 30°04' W 093°21'2 3.0
2017-Sep-18 00:00N 30°05' W 093°20'2 3.3
2017-Sep-17 23:30N 30°06' W 093°18'2 4.0
2017-Sep-17 23:00N 30°04' W 093°16'0 0.3
2017-Sep-17 22:30N 30°04' W 093°16'0 0.2
2017-Sep-17 22:00N 30°04' W 093°16'1 1.9
2017-Sep-17 21:30N 30°03' W 093°16'1 1.7
2017-Sep-17 21:00N 30°03' W 093°16'1 2.6
2017-Sep-17 20:30N 30°02' W 093°15'3 5.5
2017-Sep-17 20:00N 29°59' W 093°13'3 6.1
2017-Sep-17 19:30N 29°57' W 093°11'46 4.3
2017-Sep-17 08:55N 29°50' W 092°18'2 4.1
2017-Sep-17 08:30N 29°49' W 092°17'2 4.0
2017-Sep-17 08:00N 29°48' W 092°15'2 4.6
2017-Sep-17 07:30N 29°47' W 092°13'2 4.2
2017-Sep-17 07:00N 29°47' W 092°10'2 4.5
2017-Sep-17 06:30N 29°47' W 092°08'2 4.5
2017-Sep-17 06:00N 29°48' W 092°05'  
2017-Sep-09 19:28N 32°06' W 091°06'4 8.0
2017-Sep-09 19:00N 32°07' W 091°02'611.3
2017-Sep-09 18:31N 32°12' W 090°59'612.0
2017-Sep-09 18:00N 32°18' W 090°56'3 6.4
2017-Sep-09 17:30N 32°21' W 090°56'4 7.7
2017-Sep-09 17:01N 32°22' W 091°00'5 9.1
2017-Sep-09 16:31N 32°26' W 091°03'510.2
2017-Sep-09 16:01N 32°30' W 091°07'510.2
2017-Sep-09 15:30N 32°35' W 091°08'  
Track history (hours):
 
Tides and Currents Weather Stations Pressure Air Temp Water Temp Dewpoint Dewpoint Depression Visibility Wind Speed Wind Dir Waves Ship Positions

Fritz

Owner: Enterprise Marine Services, LLC, San Antonio, TX. More information available from US FCC via Universal Licensing System and Coast Guard Vessel Documentation Center.

Last reported at 2017-Sep-18 03:31 UTC. Time now 2017-Sep-23 04:11 UTC.
Position N 30°04' W 093°41'.

Length 31 m; draft 3 m.

Type: Towing. MMSI: 367428150.

Date/timePositionNaut miles runAvg speedWind from/ knotsBaromVisibWave heightAir tempDewpointWater temp
2017-Sep-18 03:31N 30°04' W 093°41'0 7.6
2017-Sep-18 03:29N 30°04' W 093°41'3 7.2
2017-Sep-18 03:00N 30°04' W 093°37'3 6.0
2017-Sep-18 02:30N 30°04' W 093°33'3 5.7
2017-Sep-18 02:00N 30°04' W 093°30'3 5.7
2017-Sep-18 01:30N 30°04' W 093°27'3 5.8
2017-Sep-18 01:00N 30°04' W 093°23'2 4.2
2017-Sep-18 00:30N 30°04' W 093°21'2 3.0
2017-Sep-18 00:00N 30°05' W 093°20'2 3.3
2017-Sep-17 23:30N 30°06' W 093°18'2 4.0
2017-Sep-17 23:00N 30°04' W 093°16'0 0.3
2017-Sep-17 22:30N 30°04' W 093°16'0 0.2
2017-Sep-17 22:00N 30°04' W 093°16'1 1.9
2017-Sep-17 21:30N 30°03' W 093°16'1 1.7
2017-Sep-17 21:00N 30°03' W 093°16'1 2.6
2017-Sep-17 20:30N 30°02' W 093°15'3 5.5
2017-Sep-17 20:00N 29°59' W 093°13'3 6.1
2017-Sep-17 19:30N 29°57' W 093°11'46 4.3
2017-Sep-17 08:55N 29°50' W 092°18'2 4.1
2017-Sep-17 08:30N 29°49' W 092°17'2 4.0
2017-Sep-17 08:00N 29°48' W 092°15'2 4.6
2017-Sep-17 07:30N 29°47' W 092°13'2 4.2
2017-Sep-17 07:00N 29°47' W 092°10'2 4.5
2017-Sep-17 06:30N 29°47' W 092°08'2 4.5
2017-Sep-17 06:00N 29°48' W 092°05'  
2017-Sep-09 19:28N 32°06' W 091°06'4 8.0
2017-Sep-09 19:00N 32°07' W 091°02'611.3
2017-Sep-09 18:31N 32°12' W 090°59'612.0
2017-Sep-09 18:00N 32°18' W 090°56'3 6.4
2017-Sep-09 17:30N 32°21' W 090°56'4 7.7
2017-Sep-09 17:01N 32°22' W 091°00'5 9.1
2017-Sep-09 16:31N 32°26' W 091°03'510.2
2017-Sep-09 16:01N 32°30' W 091°07'510.2
2017-Sep-09 15:30N 32°35' W 091°08'  

Dump ship's entire track history